AA0FC Weather Reports


Display with metric or nautical units.
time (UTC)temp
F
wind
direction
speed
MPH
gust
MPH
rain 1hr
in
rain 24hr
in
rain mn
in
humidity
%
barometer
mb
20240227210652 34 99 6.0 10.0 0.00 0.12 0.12 66 1004.5
20240227205643 34 134 4.0 10.0 0.00 0.12 0.12 67 1004.3
20240227204636 33 105 6.0 11.0 0.00 0.12 0.12 67 1004.2
20240227204614 33 115 4.0 8.0 0.00 0.12 0.12 67 1004.1
20240227202611 33 90 4.0 10.0 0.00 0.12 0.12 65 1004.1
20240227202039 33 57 4.0 10.0 0.00 0.12 0.12 66 1003.8
20240227201038 33 96 4.0 7.0 0.00 0.12 0.12 67 1004.2
20240227195539 31 10 4.0 10.0 0.00 0.12 0.12 67 1004.4
20240227194534 31 10 4.0 8.0 0.00 0.12 0.12 67 1004.5
20240227193517 30 66 6.0 10.0 0.00 0.12 0.12 68 1004.2
20240227192518 29 10 6.0 10.0 0.01 0.12 0.12 68 1005.2
20240227191514 29 10 6.0 8.0 0.01 0.12 0.12 68 1005.5
20240227190505 30 10 3.0 8.0 0.01 0.12 0.12 69 1004.8
20240227185459 29 10 3.0 10.0 0.01 0.12 0.12 70 1004.4
20240227184458 29 10 3.0 7.0 0.02 0.12 0.12 70 1004.5
20240227183459 28 69 4.0 13.0 0.03 0.12 0.12 71 1004.4
20240227182457 27 32 4.0 11.0 0.03 0.11 0.11 72 1004.8
20240227181930 26 115 6.0 10.0 0.04 0.11 0.11 77 1004.5
20240227180427 26 86 4.0 10.0 0.05 0.11 0.11 77 1004.1
20240227175926 26 111 4.0 7.0 0.06 0.11 0.11 78 1004.3
20240227174425 26 95 4.0 8.0 0.06 0.10 0.10 78 1004.0
20240227173426 26 93 4.0 10.0 0.06 0.09 0.09 79 1004.0
20240227172423 26 96 4.0 8.0 0.07 0.08 0.08 80 1003.7
20240227171918 25 61 4.0 11.0 0.07 0.07 0.07 81 1003.5
20240227170417 25 84 6.0 10.0 0.06 0.06 0.07 81 1002.7
20240227165905 25 93 3.0 7.0 0.05 0.05 0.05 81 1002.8
20240227164344 26 121 4.0 10.0 0.04 0.04 0.04 82 1002.7
20240227163347 26 88 3.0 6.0 0.02 0.02 0.03 83 1002.3
20240227162327 25 93 1.0 7.0 0.01 0.01 0.01 82 1002.1
20240227161323 25 80 1.0 6.0 0.00 0.00 0.00 81 1002.6
20240227160301 25 88 1.0 7.0 0.00 0.00 0.00 81 1002.2
20240227155246 26 112 3.0 8.0 0.00 0.00 0.00 81 1002.1
20240227154230 26 43 7.0 14.0 0.00 0.00 0.00 80 1001.0
20240227153205 28 80 8.0 14.0 0.00 0.00 0.00 79 1000.8
20240227152648 29 45 8.0 18.0 0.00 0.00 0.00 78 1000.6
20240227151126 30 56 10.0 20.0 0.00 0.00 0.00 77 1000.0
20240227150126 31 26 11.0 23.0 0.00 0.00 0.00 75 999.4
20240227145124 33 45 10.0 20.0 0.00 0.00 0.00 72 999.3
20240227144124 34 26 11.0 28.0 0.00 0.00 0.00 70 998.2
20240227143124 36 19 11.0 21.0 0.00 0.00 0.00 68 997.3
20240227142124 38 90 10.0 18.0 0.00 0.00 0.00 67 996.6
20240227141119 39 62 13.0 29.0 0.00 0.00 0.00 62 996.5
20240227140117 43 17 11.0 23.0 0.00 0.00 0.00 59 996.2
20240227135109 42 45 6.0 14.0 0.00 0.00 0.00 52 995.8
20240227134108 42 34 3.0 7.0 0.00 0.00 0.00 52 995.3
20240227133050 43 323 3.0 7.0 0.00 0.00 0.00 51 995.1
20240227132053 42 174 4.0 13.0 0.00 0.00 0.00 51 994.8
20240227131045 42 140 6.0 23.0 0.00 0.00 0.00 52 994.4
20240227130042 41 263 6.0 14.0 0.00 0.00 0.00 54 994.1
20240227125034 42 261 0.0 3.0 0.00 0.00 0.00 52 994.6
20240227124513 42 261 1.0 6.0 0.00 0.00 0.00 52 994.9
20240227123011 42 298 3.0 7.0 0.00 0.00 0.00 52 995.1
20240227122013 41 225 3.0 7.0 0.00 0.00 0.00 52 995.2
20240227121007 41 225 4.0 7.0 0.00 0.00 0.00 51 994.9
20240227115938 41 231 4.0 7.0 0.00 0.00 0.00 50 994.9
20240227114941 41 232 4.0 7.0 0.00 0.00 0.00 49 995.1
20240227113915 42 200 6.0 8.0 0.00 0.00 0.00 48 994.8
20240227112911 41 211 6.0 10.0 0.00 0.00 0.00 48 994.9
20240227111905 41 178 4.0 8.0 0.00 0.00 0.00 49 994.8
20240227110848 40 224 6.0 10.0 0.00 0.00 0.00 50 995.1
20240227105850 40 215 1.0 6.0 0.00 0.00 0.00 50 994.9
20240227104844 41 205 3.0 6.0 0.00 0.00 0.00 49 995.1
20240227103828 41 191 4.0 8.0 0.00 0.00 0.00 48 995.1
20240227102830 41 232 4.0 8.0 0.00 0.00 0.00 48 995.3
20240227102325 41 232 6.0 10.0 0.00 0.00 0.00 48 995.4
20240227100818 42 231 6.0 11.0 0.00 0.00 0.00 48 995.5
20240227095805 42 231 7.0 10.0 0.00 0.00 0.00 48 995.5
20240227094800 42 205 6.0 13.0 0.00 0.00 0.00 48 996.0
20240227093753 42 205 7.0 11.0 0.00 0.00 0.00 48 996.1
20240227092748 42 207 7.0 13.0 0.00 0.00 0.00 49 996.0
20240227091748 41 215 7.0 13.0 0.00 0.00 0.00 51 996.2
20240227090752 39 238 6.0 11.0 0.00 0.00 0.00 53 996.5
20240227090748 40 209 7.0 17.0 0.00 0.00 0.00 53 996.3
20240227084724 39 226 6.0 11.0 0.00 0.00 0.00 53 996.6
20240227083720 38 231 6.0 10.0 0.00 0.00 0.00 53 996.6
20240227083218 39 180 3.0 6.0 0.00 0.00 0.00 52 996.7
20240227081716 39 176 3.0 6.0 0.00 0.00 0.00 51 996.8
20240227080719 40 190 1.0 6.0 0.00 0.00 0.00 49 997.0
20240227075713 40 229 3.0 6.0 0.00 0.00 0.00 49 997.3
20240227074714 41 230 6.0 10.0 0.00 0.00 0.00 48 997.5
20240227073712 41 216 4.0 7.0 0.00 0.00 0.00 48 997.5
20240227072717 41 160 3.0 7.0 0.00 0.00 0.00 48 997.6
20240227071655 41 207 3.0 7.0 0.00 0.00 0.00 48 997.9
20240227070652 41 205 4.0 7.0 0.00 0.00 0.00 48 998.1
20240227065654 41 229 6.0 7.0 0.00 0.00 0.00 47 998.3
20240227064639 42 229 1.0 6.0 0.00 0.00 0.00 46 998.5
20240227063639 43 229 1.0 6.0 0.00 0.00 0.00 45 998.7
20240227062629 44 229 1.0 7.0 0.00 0.00 0.00 44 999.0
20240227062127 44 230 1.0 6.0 0.00 0.00 0.00 43 999.0
20240227060625 45 230 0.0 3.0 0.00 0.00 0.00 42 999.3
20240227060124 46 10 1.0 8.0 0.00 0.00 0.00 42 999.5
20240227054625 46 10 3.0 8.0 0.00 0.00 0.00 41 999.9
20240227053625 47 10 6.0 13.0 0.00 0.00 0.00 40 999.6
20240227052622 47 207 6.0 10.0 0.00 0.00 0.00 38 999.5
20240227051610 48 10 6.0 8.0 0.00 0.00 0.00 36 999.5
20240227050612 49 10 6.0 11.0 0.00 0.00 0.00 34 999.7
20240227045605 51 10 7.0 10.0 0.00 0.00 0.00 32 999.7
20240227044606 51 243 11.0 21.0 0.00 0.00 0.00 31 1000.0
20240227043605 51 10 11.0 25.0 0.00 0.00 0.00 31 1000.1
20240227042545 51 255 13.0 21.0 0.00 0.00 0.00 31 1000.2
20240227042048 51 236 11.0 21.0 0.00 0.00 0.00 31 1000.3
20240227041046 51 236 11.0 18.0 0.00 0.00 0.00 29 1000.3
20240227035546 51 253 13.0 28.0 0.00 0.00 0.00 29 1000.2
20240227034518 51 259 13.0 18.0 0.00 0.00 0.00 29 1000.2
20240227033516 51 237 10.0 20.0 0.00 0.00 0.00 30 1000.1
20240227032515 50 221 8.0 18.0 0.00 0.00 0.00 29 1000.3
20240227032012 50 244 8.0 14.0 0.00 0.00 0.00 27 1000.2
20240227030502 50 232 7.0 15.0 0.00 0.00 0.00 27 1000.4
20240227025459 51 226 6.0 14.0 0.00 0.00 0.00 25 1000.6
20240227025000 51 262 6.0 11.0 0.00 0.00 0.00 25 1000.8
20240227023959 51 273 7.0 13.0 0.00 0.00 0.00 25 1000.6
20240227023606 50 255 6.0 11.0 0.00 0.00 0.00 25 1000.7
20240227021932 51 231 6.0 10.0 0.00 0.00 0.00 25 1000.6
20240227020928 52 278 6.0 8.0 0.00 0.00 0.00 24 1000.7
20240227015929 52 266 4.0 8.0 0.00 0.00 0.00 23 1000.7
20240227014426 52 314 6.0 11.0 0.00 0.00 0.00 23 1000.7
20240227013430 53 282 6.0 13.0 0.00 0.00 0.00 22 1000.9
20240227012428 53 255 4.0 10.0 0.00 0.00 0.00 22 1001.0
20240227011419 54 273 4.0 11.0 0.00 0.00 0.00 22 1000.9
20240227010419 54 271 6.0 14.0 0.00 0.00 0.00 21 1000.8
20240227005420 55 271 7.0 14.0 0.00 0.00 0.00 20 1000.8
20240227004857 56 274 6.0 14.0 0.00 0.00 0.00 20 1000.7
20240227003325 56 261 8.0 17.0 0.00 0.00 0.00 19 1000.7
20240227002325 57 238 7.0 14.0 0.00 0.00 0.00 18 1000.8
20240227001829 58 258 11.0 23.0 0.00 0.00 0.00 17 1000.8
20240227000255 59 236 11.0 21.0 0.00 0.00 0.00 16 1000.8
20240226235754 60 274 13.0 25.0 0.00 0.00 0.00 15 1000.7
20240226234252 62 232 14.0 29.0 0.00 0.00 0.00 14 1000.7
20240226233757 62 235 17.0 34.0 0.00 0.00 0.00 15 1000.7
20240226232250 61 305 14.0 29.0 0.00 0.00 0.00 16 1000.7
20240226231244 62 232 13.0 23.0 0.00 0.00 0.00 16 1000.9
20240226230717 62 269 13.0 31.0 0.00 0.00 0.00 15 1000.8
20240226225711 63 301 13.0 31.0 0.00 0.00 0.00 15 1001.0
20240226224210 63 238 11.0 25.0 0.00 0.00 0.00 16 1001.0
20240226223209 64 265 13.0 28.0 0.00 0.00 0.00 15 1001.3
20240226222209 65 249 13.0 25.0 0.00 0.00 0.00 15 1001.4
20240226221708 64 273 14.0 31.0 0.00 0.00 0.00 16 1001.0
20240226220146 64 233 17.0 36.0 0.00 0.00 0.00 15 1001.1
20240226215150 65 265 13.0 38.0 0.00 0.00 0.00 15 1001.4
20240226214643 65 299 13.0 27.0 0.00 0.00 0.00 16 1001.5
20240226213634 65 311 13.0 27.0 0.00 0.00 0.00 16 1001.5
20240226212130 65 244 13.0 28.0 0.00 0.00 0.00 17 1001.6
20240226211124 65 271 11.0 27.0 0.00 0.00 0.00 16 1002.1